createdAt,value
2022-11-25T01:56:57.354Z,19.25
2022-11-25T01:59:24.019Z,18.90
2022-11-25T02:01:50.666Z,16.95
2022-11-25T02:04:18.316Z,15.70
2022-11-25T02:07:07.754Z,17.35
2022-11-25T02:09:34.893Z,18.05
2022-11-25T02:12:01.361Z,17.50
2022-11-25T02:14:27.904Z,17.02
2022-11-25T02:16:55.481Z,19.65
2022-11-25T02:19:23.877Z,22.88
2022-11-25T02:21:56.644Z,20.30
2022-11-25T02:24:27.472Z,23.05
2022-11-25T02:26:54.200Z,23.30
2022-11-25T02:29:20.625Z,23.92
2022-11-25T02:31:48.977Z,23.20
2022-11-25T02:34:15.442Z,24.73
2022-11-25T02:36:41.973Z,28.90
2022-11-25T02:39:08.553Z,23.52
2022-11-25T02:41:37.433Z,24.45
2022-11-25T02:44:04.284Z,25.70
2022-11-25T02:46:31.439Z,27.80
2022-11-25T02:49:08.856Z,26.65
2022-11-25T02:51:37.153Z,26.83
2022-11-25T02:54:03.690Z,27.50
2022-11-25T02:56:32.170Z,27.17
2022-11-25T02:58:58.693Z,24.50
2022-11-25T03:01:25.274Z,30.65
2022-11-25T03:03:51.766Z,32.95
2022-11-25T03:06:18.325Z,29.77
2022-11-25T03:08:44.811Z,33.60
2022-11-25T03:11:11.445Z,32.53
2022-11-25T03:13:37.961Z,27.02
2022-11-25T03:16:04.589Z,29.17
2022-11-25T03:18:31.180Z,27.17
2022-11-25T03:20:57.673Z,25.13
2022-11-25T03:23:24.485Z,31.15
2022-11-25T03:25:51.066Z,27.65
2022-11-25T03:28:17.489Z,26.60
2022-11-25T03:30:43.998Z,33.72
2022-11-25T03:33:10.447Z,27.83
2022-11-25T03:35:36.897Z,25.45
2022-11-25T03:38:03.358Z,29.45
2022-11-25T03:40:29.787Z,26.38
2022-11-25T03:42:56.245Z,30.13
2022-11-25T03:45:22.727Z,27.25
2022-11-25T03:47:49.262Z,30.27
2022-11-25T03:50:16.416Z,32.08
2022-11-25T03:52:42.831Z,29.15
2022-11-25T03:55:10.035Z,30.40
2022-11-25T03:57:36.429Z,30.15
2022-11-25T04:00:03.340Z,28.77
2022-11-25T04:02:29.853Z,31.35
2022-11-25T04:04:57.492Z,32.67
2022-11-25T04:07:24.028Z,26.23
2022-11-25T04:09:50.555Z,28.70
2022-11-25T04:12:35.535Z,27.33
2022-11-25T04:15:02.011Z,28.20
2022-11-25T04:17:28.424Z,27.13
2022-11-25T04:19:54.835Z,28.50
2022-11-25T04:22:21.330Z,29.92
2022-11-25T04:24:47.770Z,33.08
2022-11-25T04:27:14.288Z,29.75
2022-11-25T04:29:40.782Z,28.52
2022-11-25T04:32:07.219Z,27.90
2022-11-25T04:34:33.771Z,32.50
2022-11-25T04:37:00.410Z,29.70
2022-11-25T04:39:26.904Z,35.72
2022-11-25T04:42:16.256Z,28.23
2022-11-25T04:44:48.724Z,28.65
2022-11-25T04:47:22.478Z,35.17
2022-11-25T04:49:48.977Z,28.23
2022-11-25T04:52:15.386Z,30.90
2022-11-25T04:54:41.813Z,35.10
2022-11-25T04:57:09.819Z,29.50
2022-11-25T04:59:40.480Z,27.80
2022-11-25T05:02:17.775Z,32.63
2022-11-25T05:04:45.392Z,29.63
2022-11-25T05:07:11.962Z,26.90
2022-11-25T05:09:40.858Z,26.40
2022-11-25T05:12:08.720Z,26.80
2022-11-25T05:14:35.907Z,29.40
2022-11-25T05:17:03.375Z,28.25
2022-11-25T05:19:29.965Z,25.85
2022-11-25T05:21:57.644Z,27.23
2022-11-25T05:24:24.726Z,27.98
2022-11-25T05:26:51.201Z,26.13
2022-11-25T05:29:17.692Z,29.75
2022-11-25T05:31:44.118Z,26.75
2022-11-25T05:34:10.544Z,26.67
2022-11-25T05:36:37.182Z,32.80
2022-11-25T05:39:04.171Z,31.17
2022-11-25T05:41:30.618Z,25.52
2022-11-25T05:43:57.219Z,30.08
2022-11-25T05:46:23.680Z,25.98
2022-11-25T05:48:52.852Z,27.05
2022-11-25T05:51:19.328Z,28.17
2022-11-25T05:53:46.016Z,24.70
2022-11-25T05:56:12.453Z,29.48
2022-11-25T05:58:40.138Z,24.92
2022-11-25T06:01:08.758Z,25.40
2022-11-25T06:03:35.649Z,28.55
2022-11-25T06:06:02.325Z,26.25
2022-11-25T06:08:28.972Z,28.42
2022-11-25T06:10:55.436Z,27.55
2022-11-25T06:13:22.194Z,27.38
2022-11-25T06:15:48.975Z,26.65
2022-11-25T06:18:16.261Z,24.85
2022-11-25T06:20:42.921Z,24.70
2022-11-25T06:23:09.739Z,25.30
2022-11-25T06:25:36.688Z,31.33
2022-11-25T06:28:19.088Z,27.38
2022-11-25T06:30:45.612Z,27.80
2022-11-25T06:33:12.530Z,32.60
2022-11-25T06:35:38.971Z,22.20
2022-11-25T06:38:05.417Z,24.45
2022-11-25T06:40:32.578Z,23.63
2022-11-25T06:42:59.032Z,23.98
2022-11-25T06:45:25.693Z,25.55
2022-11-25T06:47:52.160Z,25.67
2022-11-25T06:50:18.705Z,25.33
2022-11-25T06:52:45.199Z,23.30
2022-11-25T06:55:11.698Z,22.23
2022-11-25T06:57:38.291Z,24.83
2022-11-25T07:00:05.044Z,22.35
2022-11-25T07:02:36.179Z,22.33
2022-11-25T07:05:07.466Z,25.88
2022-11-25T07:07:33.991Z,23.30
2022-11-25T07:10:00.478Z,33.85
2022-11-25T07:12:26.973Z,23.05
2022-11-25T07:14:53.481Z,31.17
2022-11-25T07:17:19.928Z,29.13
2022-11-25T07:19:46.492Z,25.85
2022-11-25T07:22:12.923Z,30.85
2022-11-25T07:24:39.405Z,29.33
2022-11-25T07:27:06.923Z,29.02
2022-11-25T07:30:03.521Z,25.52
2022-11-25T07:32:22.611Z,27.95
2022-11-25T07:34:50.305Z,25.83
2022-11-25T07:37:17.939Z,32.05
2022-11-25T07:39:44.389Z,29.77
2022-11-25T07:42:10.823Z,30.58
2022-11-25T07:44:37.271Z,31.33
2022-11-25T07:47:03.817Z,29.17
2022-11-25T07:49:30.207Z,31.30
2022-11-25T07:54:26.444Z,29.90
2022-11-25T08:04:22.062Z,32.40
2022-11-25T08:06:50.052Z,27.73
2022-11-25T08:09:20.385Z,32.72
2022-11-25T08:11:47.307Z,29.95
2022-11-25T08:14:14.077Z,34.67
2022-11-25T08:16:40.607Z,26.48
2022-11-25T08:19:08.283Z,28.48
2022-11-25T08:36:33.844Z,28.45
2022-11-25T15:21:02.627Z,30.40
2022-11-25T15:23:32.055Z,31.92
2022-11-25T15:25:58.632Z,29.05
2022-11-25T15:28:25.066Z,30.83
2022-11-25T15:30:58.649Z,34.25
2022-11-25T15:33:26.016Z,29.15
2022-11-25T15:35:52.645Z,31.92
2022-11-25T15:38:20.336Z,38.33
2022-11-25T15:40:54.991Z,38.55
2022-11-25T15:43:25.378Z,43.10
2022-11-25T15:45:54.502Z,38.13
2022-11-25T15:48:27.106Z,33.28
2022-11-25T15:50:57.527Z,33.13
2022-11-25T15:53:30.246Z,37.55
2022-11-25T15:56:01.042Z,40.67
2022-11-25T15:58:27.541Z,37.08
2022-11-25T16:01:03.339Z,31.02
2022-11-25T16:03:33.000Z,31.60
2022-11-25T16:06:00.233Z,30.75
2022-11-25T16:08:33.851Z,38.15
2022-11-25T16:11:10.089Z,29.92
2022-11-25T16:13:40.002Z,37.03
2022-11-25T16:16:16.795Z,38.30
2022-11-25T16:19:01.765Z,66.00
2022-11-25T16:21:32.982Z,58.40
2022-11-25T16:24:07.204Z,54.15
2022-11-25T16:26:38.306Z,38.83
2022-11-25T16:29:15.784Z,38.45
2022-11-25T16:31:42.250Z,34.42
2022-11-25T16:34:15.835Z,127.80
2022-11-25T16:36:42.565Z,94.57
2022-11-25T16:39:09.451Z,71.60
2022-11-25T16:41:36.211Z,67.15
2022-11-25T16:44:08.745Z,165.63
2022-11-25T16:46:35.544Z,91.53
2022-11-25T16:49:04.219Z,72.15
2022-11-25T16:51:30.700Z,72.78
2022-11-25T16:53:57.260Z,233.25
2022-11-25T16:56:27.906Z,686.85
2022-11-25T16:58:54.963Z,612.60
2022-11-25T17:01:22.804Z,611.38
2022-11-25T17:03:49.256Z,535.03
2022-11-25T17:06:21.567Z,345.17
2022-11-25T17:08:48.258Z,214.13
2022-11-25T17:11:17.989Z,157.52
2022-11-25T17:13:46.104Z,150.35
2022-11-25T17:16:15.547Z,123.43
2022-11-25T17:18:42.268Z,108.07
2022-11-25T17:21:11.601Z,89.28
2022-11-25T17:23:38.046Z,88.30
2022-11-25T17:26:04.586Z,92.43
2022-11-25T17:28:31.067Z,86.10
2022-11-25T17:30:57.514Z,78.45
2022-11-25T17:33:23.969Z,81.22
2022-11-25T17:35:50.488Z,84.90
2022-11-25T17:38:18.534Z,87.63
2022-11-25T17:40:45.137Z,73.82
2022-11-25T17:43:15.753Z,74.88
2022-11-25T17:45:42.857Z,65.32
2022-11-25T17:48:10.309Z,64.82
2022-11-25T17:50:36.738Z,68.00
2022-11-25T17:53:03.299Z,69.03
2022-11-25T17:55:29.957Z,67.63
2022-11-25T17:57:56.456Z,69.72
2022-11-25T18:00:23.139Z,532.60
2022-11-25T18:02:49.764Z,494.42
2022-11-25T18:05:17.870Z,1108.10
2022-11-25T18:07:44.422Z,1490.97
2022-11-25T18:10:12.410Z,1506.85
2022-11-25T18:12:39.235Z,946.75
2022-11-25T18:15:08.912Z,630.97
2022-11-25T18:17:36.681Z,208.90
2022-11-25T18:20:22.772Z,143.25
2022-11-25T18:22:50.208Z,126.28
2022-11-25T18:25:17.597Z,90.95
2022-11-25T18:27:44.530Z,99.93
2022-11-25T18:30:21.119Z,103.65
2022-11-25T18:32:47.632Z,105.57
2022-11-25T18:35:15.505Z,96.45
2022-11-25T18:37:41.959Z,88.72
2022-11-25T18:40:08.685Z,94.28
2022-11-25T18:42:35.335Z,123.32
2022-11-25T18:45:01.923Z,107.18
2022-11-25T18:47:28.358Z,106.53
2022-11-25T18:49:56.519Z,114.40
2022-11-25T18:52:23.742Z,114.97
2022-11-25T18:54:50.182Z,108.15
2022-11-25T18:57:16.745Z,94.90
2022-11-25T18:59:43.765Z,110.25
2022-11-25T19:02:17.858Z,107.07
2022-11-25T19:04:44.611Z,113.28
2022-11-25T19:07:11.131Z,110.60
2022-11-25T19:09:37.780Z,102.35
2022-11-25T19:12:04.380Z,115.15
2022-11-25T19:14:36.179Z,110.72
2022-11-25T19:17:04.406Z,120.20
2022-11-25T19:19:30.970Z,120.95
2022-11-25T19:21:58.547Z,131.10
2022-11-25T19:24:24.983Z,139.88
2022-11-25T19:26:52.687Z,129.85
2022-11-25T19:29:20.662Z,126.00
2022-11-25T19:31:47.460Z,111.35
2022-11-25T19:34:25.929Z,116.78
2022-11-25T19:36:52.448Z,119.15
2022-11-25T19:39:18.941Z,116.32
2022-11-25T19:41:45.648Z,110.70
2022-11-25T19:44:12.089Z,111.65
2022-11-25T19:47:07.057Z,116.50
2022-11-25T19:49:26.727Z,114.45
2022-11-25T19:51:53.163Z,111.63
2022-11-25T19:54:19.626Z,110.72
2022-11-25T19:56:46.309Z,113.40
2022-11-25T19:59:12.786Z,109.47
2022-11-25T20:01:41.218Z,107.85
2022-11-25T20:04:08.216Z,105.90
2022-11-25T20:06:34.758Z,96.50
2022-11-25T20:09:06.467Z,92.00
2022-11-25T20:11:36.526Z,94.38
2022-11-25T20:14:03.621Z,100.07
2022-11-25T20:16:34.268Z,98.20
2022-11-25T20:19:01.223Z,109.22
2022-11-25T20:21:29.965Z,100.55
2022-11-25T20:23:56.521Z,114.35
2022-11-25T20:26:31.189Z,101.10
2022-11-25T20:28:57.690Z,116.70
2022-11-25T20:31:28.663Z,116.88
2022-11-25T20:33:56.545Z,123.68
2022-11-25T20:36:24.582Z,119.15
2022-11-25T20:38:52.918Z,107.30
2022-11-25T20:41:23.039Z,120.55
2022-11-25T20:43:54.221Z,135.50
2022-11-25T20:46:22.997Z,128.70
2022-11-25T20:48:51.641Z,125.07
2022-11-25T20:51:20.134Z,132.40
2022-11-25T20:53:48.449Z,134.05
2022-11-25T20:56:16.091Z,127.38
2022-11-25T20:58:42.655Z,126.05
2022-11-25T21:01:09.571Z,122.88
2022-11-25T21:03:36.015Z,137.10
2022-11-25T21:06:03.251Z,136.85
2022-11-25T21:08:30.904Z,120.47
2022-11-25T21:10:58.393Z,124.55
2022-11-25T21:13:26.169Z,130.02
2022-11-25T21:15:53.997Z,134.30
2022-11-25T21:18:21.487Z,127.53
2022-11-25T21:20:49.019Z,127.40
2022-11-25T21:23:20.097Z,131.45
2022-11-25T21:25:47.249Z,122.57
2022-11-25T21:28:32.353Z,126.45
2022-11-25T21:30:58.784Z,126.38
2022-11-25T21:33:25.198Z,119.78
2022-11-25T21:35:51.674Z,114.70
2022-11-25T21:38:20.941Z,122.88
2022-11-25T21:40:48.423Z,125.68
2022-11-25T21:43:25.113Z,109.68
2022-11-25T21:46:04.911Z,122.05
2022-11-25T21:48:31.494Z,122.20
2022-11-25T21:50:58.759Z,118.20
2022-11-25T21:53:25.542Z,119.32
2022-11-25T21:55:52.223Z,110.63
2022-11-25T21:58:25.389Z,110.68
2022-11-25T22:00:53.976Z,101.80
2022-11-25T22:03:21.042Z,111.03
2022-11-25T22:05:48.167Z,103.38
2022-11-25T22:08:14.598Z,105.07
2022-11-25T22:10:42.877Z,105.47
2022-11-25T22:13:13.260Z,113.82
2022-11-25T22:15:39.679Z,131.73
2022-11-25T22:18:06.233Z,112.45
2022-11-25T22:20:33.846Z,115.30
2022-11-25T22:23:01.010Z,109.40
2022-11-25T22:25:30.295Z,129.27
2022-11-25T22:27:56.831Z,143.80
2022-11-25T22:30:24.090Z,146.40
2022-11-25T22:32:57.691Z,155.70
2022-11-25T22:35:24.121Z,152.80
2022-11-25T22:37:54.912Z,137.25
2022-11-25T22:40:22.638Z,191.45
2022-11-25T22:42:50.549Z,168.38
2022-11-25T22:45:20.294Z,140.23
2022-11-25T22:47:47.593Z,126.30
2022-11-25T22:50:13.998Z,168.65
2022-11-25T22:52:40.431Z,143.32
2022-11-25T22:55:18.491Z,118.85
2022-11-25T22:57:45.203Z,112.97
2022-11-25T23:00:12.803Z,102.88
2022-11-25T23:02:39.389Z,97.75
2022-11-25T23:05:13.908Z,116.50
2022-11-25T23:07:40.542Z,120.45
2022-11-25T23:10:26.612Z,114.93
2022-11-25T23:12:53.082Z,131.43
2022-11-25T23:15:20.559Z,128.65
2022-11-25T23:17:48.918Z,112.65
2022-11-25T23:20:17.295Z,103.93
2022-11-25T23:22:43.762Z,106.70
2022-11-25T23:25:12.824Z,115.35
2022-11-25T23:27:39.293Z,98.70
2022-11-25T23:30:06.538Z,105.55
2022-11-25T23:32:33.005Z,124.78
2022-11-25T23:34:59.484Z,119.65
2022-11-25T23:37:25.920Z,120.60
2022-11-25T23:39:53.088Z,116.47
2022-11-25T23:42:20.510Z,128.43
2022-11-25T23:44:47.140Z,112.82
2022-11-25T23:47:18.509Z,107.65
2022-11-25T23:49:46.081Z,105.75
2022-11-25T23:52:30.518Z,111.93
2022-11-25T23:54:57.790Z,103.90
2022-11-25T23:57:26.053Z,129.10
2022-11-25T23:59:52.736Z,123.10
